createdAt,value
2023-02-27T00:01:51.144Z,7.55
2023-02-27T00:04:17.778Z,6.88
2023-02-27T00:06:44.384Z,7.72
2023-02-27T00:09:10.874Z,6.30
2023-02-27T00:11:38.568Z,6.55
2023-02-27T00:14:05.371Z,7.70
2023-02-27T00:16:32.025Z,5.80
2023-02-27T00:19:01.209Z,6.88
2023-02-27T00:21:28.220Z,6.38
2023-02-27T00:23:55.423Z,7.78
2023-02-27T00:26:22.555Z,7.00
2023-02-27T00:28:49.200Z,5.95
2023-02-27T00:31:15.773Z,8.23
2023-02-27T00:33:42.381Z,5.90
2023-02-27T00:36:09.186Z,6.68
2023-02-27T00:38:36.031Z,7.00
2023-02-27T00:41:02.935Z,7.00
2023-02-27T00:43:29.651Z,6.47
2023-02-27T00:45:56.565Z,5.90
2023-02-27T00:48:23.175Z,6.00
2023-02-27T00:50:52.333Z,5.57
2023-02-27T00:53:18.848Z,5.70
2023-02-27T00:55:46.777Z,5.28
2023-02-27T00:58:13.276Z,4.43
2023-02-27T01:00:39.994Z,4.53
2023-02-27T01:03:06.550Z,5.63
2023-02-27T01:05:33.443Z,5.70
2023-02-27T01:08:00.140Z,5.35
2023-02-27T01:10:26.800Z,6.00
2023-02-27T01:12:53.316Z,6.68
2023-02-27T01:15:20.055Z,4.78
2023-02-27T01:17:48.082Z,5.15
2023-02-27T01:20:15.090Z,6.53
2023-02-27T01:22:41.877Z,6.40
2023-02-27T01:25:08.960Z,5.07
2023-02-27T01:27:38.603Z,5.35
2023-02-27T01:30:06.848Z,3.95
2023-02-27T01:32:33.420Z,4.18
2023-02-27T01:35:00.523Z,4.47
2023-02-27T01:37:27.103Z,4.25
2023-02-27T01:39:53.830Z,4.13
2023-02-27T01:42:23.428Z,5.47
2023-02-27T01:45:08.886Z,4.22
2023-02-27T01:47:36.949Z,4.10
2023-02-27T01:50:05.292Z,3.42
2023-02-27T01:52:34.433Z,3.60
2023-02-27T01:55:00.978Z,5.30
2023-02-27T01:57:28.544Z,4.65
2023-02-27T01:59:55.474Z,4.03
2023-02-27T02:02:30.711Z,2.97
2023-02-27T02:04:57.611Z,3.40
2023-02-27T02:07:25.697Z,2.97
2023-02-27T02:09:56.215Z,4.28
2023-02-27T02:12:28.952Z,2.75
2023-02-27T02:14:55.611Z,3.60
2023-02-27T02:17:28.039Z,3.17
2023-02-27T02:20:07.481Z,2.53
2023-02-27T02:22:55.870Z,3.45
2023-02-27T02:25:53.481Z,2.80
2023-02-27T02:28:49.542Z,2.53
2023-02-27T02:31:57.954Z,3.60
2023-02-27T02:34:42.720Z,2.75
2023-02-27T02:37:24.471Z,2.60
2023-02-27T02:40:14.306Z,2.25
2023-02-27T02:42:49.160Z,2.58
2023-02-27T02:45:15.706Z,2.55
2023-02-27T02:48:01.156Z,2.20
2023-02-27T02:50:36.251Z,2.42
2023-02-27T02:53:36.598Z,2.20
2023-02-27T02:58:58.207Z,1.67
2023-02-27T03:01:36.039Z,2.33
2023-02-27T03:04:38.386Z,1.50
2023-02-27T03:10:31.151Z,1.55
2023-02-27T03:13:06.370Z,2.22
2023-02-27T03:15:47.643Z,1.55
2023-02-27T03:18:20.716Z,1.90
2023-02-27T03:20:55.939Z,2.50
2023-02-27T03:23:38.211Z,2.22
2023-02-27T03:26:06.814Z,1.20
2023-02-27T03:28:38.081Z,1.75
2023-02-27T03:36:32.513Z,1.52
2023-02-27T03:39:39.693Z,1.92
2023-02-27T03:42:32.726Z,1.90
2023-02-27T03:45:51.309Z,2.10
2023-02-27T03:48:18.162Z,1.42
2023-02-27T03:50:47.762Z,1.30
2023-02-27T03:53:33.906Z,1.95
2023-02-27T03:56:03.527Z,1.67
2023-02-27T03:58:30.525Z,1.80
2023-02-27T04:00:57.320Z,1.50
2023-02-27T04:03:23.886Z,1.45
2023-02-27T04:05:50.806Z,1.52
2023-02-27T04:08:52.898Z,1.25
2023-02-27T04:11:32.324Z,1.42
2023-02-27T04:14:20.831Z,2.38
2023-02-27T04:16:56.264Z,1.50
2023-02-27T04:19:47.453Z,2.03
2023-02-27T04:22:23.009Z,1.73
2023-02-27T04:25:12.661Z,1.98
2023-02-27T04:28:03.218Z,2.08
2023-02-27T04:30:37.048Z,1.70
2023-02-27T04:33:13.832Z,1.95
2023-02-27T04:35:56.884Z,1.60
2023-02-27T04:38:31.458Z,1.75
2023-02-27T04:41:08.027Z,1.95
2023-02-27T04:43:37.588Z,1.98
2023-02-27T04:46:08.826Z,2.25
2023-02-27T04:48:41.318Z,2.60
2023-02-27T04:51:15.424Z,3.70
2023-02-27T04:53:50.034Z,2.83
2023-02-27T04:56:24.686Z,2.53
2023-02-27T04:58:57.176Z,1.88
2023-02-27T05:01:31.548Z,3.10
2023-02-27T05:04:00.436Z,2.88
2023-02-27T05:06:32.241Z,2.70
2023-02-27T05:08:58.800Z,2.58
2023-02-27T05:11:56.382Z,3.63
2023-02-27T05:14:55.219Z,4.25
2023-02-27T05:17:40.794Z,4.28
2023-02-27T05:20:09.021Z,3.88
2023-02-27T05:22:35.515Z,4.22
2023-02-27T05:25:07.265Z,3.95
2023-02-27T05:27:40.042Z,4.47
2023-02-27T05:32:38.546Z,4.60
2023-02-27T05:35:29.209Z,3.65
2023-02-27T05:38:08.223Z,5.72
2023-02-27T05:40:39.793Z,4.82
2023-02-27T05:43:13.044Z,4.05
2023-02-27T05:45:43.515Z,7.80
2023-02-27T05:48:23.818Z,6.78
2023-02-27T05:50:52.709Z,6.43
2023-02-27T05:53:21.915Z,7.05
2023-02-27T05:55:54.384Z,6.35
2023-02-27T05:58:26.762Z,6.90
2023-02-27T06:03:29.614Z,5.72
2023-02-27T06:05:58.924Z,6.18
2023-02-27T06:08:29.970Z,5.85
2023-02-27T06:10:56.831Z,7.15
2023-02-27T06:13:24.504Z,9.57
2023-02-27T06:15:51.145Z,15.38
2023-02-27T06:18:18.330Z,11.32
2023-02-27T06:20:45.879Z,25.25
2023-02-27T06:23:13.012Z,11.77
2023-02-27T06:28:01.262Z,10.80
2023-02-27T06:30:28.556Z,7.93
2023-02-27T06:32:55.156Z,8.50
2023-02-27T06:35:21.994Z,6.90
2023-02-27T06:37:48.623Z,5.78
2023-02-27T06:40:15.730Z,8.90
2023-02-27T06:42:44.013Z,8.73
2023-02-27T06:45:13.395Z,5.10
2023-02-27T06:47:41.136Z,6.15
2023-02-27T06:50:11.155Z,6.93
2023-02-27T06:52:38.761Z,5.43
2023-02-27T06:55:07.961Z,5.30
2023-02-27T06:57:37.866Z,4.72
2023-02-27T07:00:08.248Z,5.43
2023-02-27T07:02:34.822Z,5.45
2023-02-27T07:05:08.260Z,5.82
2023-02-27T07:07:37.988Z,6.57
2023-02-27T07:10:09.430Z,4.65
2023-02-27T07:12:36.011Z,5.32
2023-02-27T07:15:02.690Z,5.70
2023-02-27T07:17:29.320Z,5.30
2023-02-27T07:19:55.856Z,5.82
2023-02-27T07:22:22.377Z,6.90
2023-02-27T07:24:48.952Z,5.88
2023-02-27T07:27:15.784Z,4.93
2023-02-27T07:29:42.332Z,4.75
2023-02-27T07:32:09.119Z,4.68
2023-02-27T07:34:35.660Z,3.08
2023-02-27T07:37:02.543Z,4.32
2023-02-27T07:39:29.373Z,3.85
2023-02-27T07:41:55.895Z,5.72
2023-02-27T07:44:22.537Z,4.35
2023-02-27T07:46:49.222Z,4.13
2023-02-27T07:49:15.723Z,5.30
2023-02-27T07:51:42.268Z,3.30
2023-02-27T07:54:08.831Z,4.40
2023-02-27T07:56:35.419Z,3.92
2023-02-27T07:59:02.209Z,3.55
2023-02-27T08:01:28.758Z,3.88
2023-02-27T08:03:56.421Z,3.75
2023-02-27T08:06:23.719Z,6.40
2023-02-27T08:08:50.928Z,5.28
2023-02-27T08:11:18.447Z,5.63
2023-02-27T08:14:00.051Z,4.93
2023-02-27T08:18:54.814Z,4.47
2023-02-27T08:21:21.446Z,5.03
2023-02-27T08:23:48.367Z,4.47
2023-02-27T08:26:15.146Z,5.20
2023-02-27T08:28:41.772Z,5.47
2023-02-27T08:31:08.738Z,4.60
2023-02-27T08:33:35.929Z,5.38
2023-02-27T08:36:02.914Z,4.28
2023-02-27T08:38:29.554Z,5.32
2023-02-27T08:40:56.195Z,5.30
2023-02-27T08:43:23.781Z,8.27
2023-02-27T08:45:51.691Z,5.18
2023-02-27T08:48:18.685Z,8.68
2023-02-27T08:50:46.380Z,5.43
2023-02-27T08:53:13.780Z,5.50
2023-02-27T08:55:40.544Z,4.55
2023-02-27T08:58:07.104Z,4.75
2023-02-27T09:00:33.673Z,4.55
2023-02-27T09:05:29.036Z,4.85
2023-02-27T09:07:55.756Z,3.38
2023-02-27T09:10:22.629Z,6.07
2023-02-27T09:12:49.388Z,4.03
2023-02-27T09:15:16.475Z,2.80
2023-02-27T09:17:43.603Z,3.33
2023-02-27T09:20:11.350Z,3.53
2023-02-27T09:22:38.714Z,3.90
2023-02-27T09:25:07.773Z,4.03
2023-02-27T09:27:35.197Z,3.88
2023-02-27T09:30:01.748Z,4.68
2023-02-27T09:32:28.621Z,5.25
2023-02-27T09:34:55.596Z,4.55
2023-02-27T09:37:24.914Z,3.85
2023-02-27T09:39:52.188Z,4.03
2023-02-27T09:42:19.830Z,4.28
2023-02-27T09:44:49.385Z,3.80
2023-02-27T09:47:50.732Z,4.50
2023-02-27T09:50:40.879Z,4.15
2023-02-27T09:53:15.161Z,4.93
2023-02-27T09:55:42.764Z,4.53
2023-02-27T09:58:47.850Z,4.78
2023-02-27T10:01:28.217Z,4.07
2023-02-27T10:04:19.731Z,5.85
2023-02-27T10:06:54.281Z,8.38
2023-02-27T10:09:41.166Z,6.47
2023-02-27T10:12:25.080Z,5.47
2023-02-27T10:15:05.857Z,5.75
2023-02-27T10:17:44.582Z,4.95
2023-02-27T10:20:22.458Z,4.18
2023-02-27T10:22:51.913Z,4.63
2023-02-27T10:25:30.859Z,5.68
2023-02-27T10:28:11.271Z,5.38
2023-02-27T10:30:38.407Z,5.68
2023-02-27T10:33:22.127Z,5.07
2023-02-27T10:35:51.988Z,5.13
2023-02-27T10:38:38.930Z,7.63
2023-02-27T10:41:09.931Z,5.13
2023-02-27T10:43:36.702Z,7.22
2023-02-27T10:46:12.163Z,5.93
2023-02-27T10:48:38.938Z,6.45
2023-02-27T10:51:20.746Z,5.07
2023-02-27T10:53:47.477Z,6.50
2023-02-27T10:56:18.774Z,6.95
2023-02-27T10:58:46.413Z,7.77
2023-02-27T11:01:13.289Z,4.18
2023-02-27T11:03:42.336Z,5.00
2023-02-27T11:06:27.402Z,3.67
2023-02-27T11:09:18.512Z,5.32
2023-02-27T11:11:48.946Z,8.23
2023-02-27T11:14:29.524Z,6.07
2023-02-27T11:17:01.158Z,4.65
2023-02-27T11:19:38.219Z,5.68
2023-02-27T11:22:15.846Z,3.95
2023-02-27T11:24:42.918Z,3.78
2023-02-27T11:27:21.967Z,4.82
2023-02-27T11:30:31.780Z,5.80
2023-02-27T11:33:01.489Z,7.80
2023-02-27T11:35:39.000Z,3.83
2023-02-27T11:38:16.872Z,6.75
2023-02-27T11:40:51.115Z,8.43
2023-02-27T11:43:25.245Z,17.08
2023-02-27T11:46:38.668Z,15.75
2023-02-27T11:49:03.043Z,11.23
2023-02-27T11:51:59.635Z,12.55
2023-02-27T11:54:36.014Z,7.20
2023-02-27T11:57:20.502Z,8.75
2023-02-27T11:59:58.403Z,5.68
2023-02-27T12:02:24.961Z,3.92
2023-02-27T12:05:02.968Z,3.78
2023-02-27T12:07:36.127Z,4.97
2023-02-27T12:10:22.313Z,3.70
2023-02-27T12:13:01.145Z,6.47
2023-02-27T12:15:37.643Z,5.18
2023-02-27T12:18:34.540Z,5.13
2023-02-27T12:21:10.316Z,4.13
2023-02-27T12:23:52.428Z,3.40
2023-02-27T12:26:46.542Z,3.33
2023-02-27T12:29:30.437Z,4.13
2023-02-27T12:32:47.785Z,2.40
2023-02-27T12:35:27.538Z,2.17
2023-02-27T12:37:54.522Z,3.35
2023-02-27T12:40:30.676Z,3.42
2023-02-27T12:43:11.267Z,4.18
2023-02-27T12:45:59.893Z,3.67
2023-02-27T12:48:39.757Z,2.53
2023-02-27T12:51:21.577Z,1.80
2023-02-27T12:54:00.381Z,3.15
2023-02-27T12:56:52.886Z,3.08
2023-02-27T12:59:51.970Z,2.95
2023-02-27T13:02:29.174Z,2.78
2023-02-27T13:05:24.102Z,3.08
2023-02-27T13:07:57.561Z,3.10
2023-02-27T13:10:49.097Z,2.72
2023-02-27T13:13:34.406Z,2.20
2023-02-27T13:16:07.209Z,2.55
2023-02-27T13:19:09.841Z,4.45
2023-02-27T13:21:47.406Z,4.53
2023-02-27T13:24:28.471Z,4.63
2023-02-27T13:27:00.046Z,3.10
2023-02-27T13:29:41.225Z,2.30
2023-02-27T13:32:44.738Z,2.88
2023-02-27T13:35:20.365Z,3.05
2023-02-27T13:38:28.177Z,3.70
2023-02-27T13:40:54.947Z,4.28
2023-02-27T13:43:38.152Z,3.08
2023-02-27T13:46:30.111Z,5.03
2023-02-27T13:48:59.660Z,3.78
2023-02-27T13:51:35.142Z,3.80
2023-02-27T13:54:14.328Z,4.07
2023-02-27T13:56:59.214Z,4.38
2023-02-27T13:59:35.042Z,3.95
2023-02-27T14:02:07.411Z,3.30
2023-02-27T14:04:38.478Z,3.20
2023-02-27T14:07:12.289Z,2.97
2023-02-27T14:09:42.734Z,4.70
2023-02-27T14:12:45.568Z,3.60
2023-02-27T14:15:18.547Z,3.88
2023-02-27T14:17:46.784Z,4.72
2023-02-27T14:20:35.116Z,4.22
2023-02-27T14:23:16.802Z,5.53
2023-02-27T14:26:14.268Z,2.70
2023-02-27T14:28:50.357Z,3.22
2023-02-27T14:31:25.745Z,2.85
2023-02-27T14:33:55.744Z,2.75
2023-02-27T14:36:27.704Z,2.45
2023-02-27T14:38:57.638Z,3.90
2023-02-27T14:41:39.449Z,6.43
2023-02-27T14:44:17.566Z,4.53
2023-02-27T14:46:44.500Z,4.68
2023-02-27T14:49:25.022Z,5.07
2023-02-27T14:51:51.966Z,5.93
2023-02-27T14:54:22.265Z,5.13
2023-02-27T14:57:06.552Z,5.90
2023-02-27T14:59:44.306Z,7.68
2023-02-27T15:02:26.036Z,7.82
2023-02-27T15:05:15.709Z,5.07
2023-02-27T15:07:47.261Z,5.03
2023-02-27T15:10:33.429Z,11.15
2023-02-27T15:13:01.468Z,5.40
2023-02-27T15:15:28.474Z,6.68
2023-02-27T15:17:55.902Z,5.60
2023-02-27T15:20:33.134Z,5.63
2023-02-27T15:23:01.708Z,6.90
2023-02-27T15:25:37.822Z,7.50
2023-02-27T15:28:26.293Z,8.13
2023-02-27T15:30:54.619Z,15.55
2023-02-27T15:33:28.284Z,10.85
2023-02-27T15:35:55.718Z,5.80
2023-02-27T15:38:42.471Z,8.57
2023-02-27T15:41:13.505Z,9.45
2023-02-27T15:43:41.488Z,7.82
2023-02-27T15:46:08.231Z,12.57
2023-02-27T15:48:34.950Z,13.32
2023-02-27T15:51:03.498Z,10.80
2023-02-27T15:53:33.790Z,9.38
2023-02-27T15:56:11.756Z,8.05
2023-02-27T15:58:48.706Z,9.32
2023-02-27T16:01:27.363Z,9.20
2023-02-27T16:03:57.599Z,8.68
2023-02-27T16:06:35.140Z,9.77
2023-02-27T16:09:17.667Z,8.63
2023-02-27T16:14:41.051Z,9.98
2023-02-27T16:17:24.990Z,10.25
2023-02-27T16:19:52.269Z,7.53
2023-02-27T16:22:20.605Z,7.47
2023-02-27T16:24:47.890Z,7.28
2023-02-27T16:27:29.332Z,8.30
2023-02-27T16:30:01.563Z,8.10
2023-02-27T16:35:18.838Z,8.25
2023-02-27T16:37:46.138Z,7.85
2023-02-27T16:40:14.244Z,9.57
2023-02-27T16:42:41.027Z,7.20
2023-02-27T16:45:13.643Z,8.77
2023-02-27T16:47:40.298Z,8.73
2023-02-27T16:50:15.705Z,7.82
2023-02-27T16:52:43.590Z,7.28
2023-02-27T16:55:13.041Z,8.88
2023-02-27T16:57:39.638Z,8.82
2023-02-27T17:00:17.957Z,9.07
2023-02-27T17:02:44.690Z,9.30
2023-02-27T17:05:11.281Z,8.50
2023-02-27T17:07:38.434Z,9.27
2023-02-27T17:10:07.752Z,9.50
2023-02-27T17:12:34.653Z,9.80
2023-02-27T17:15:01.296Z,8.45
2023-02-27T17:17:27.861Z,10.38
2023-02-27T17:19:54.906Z,10.77
2023-02-27T17:22:21.654Z,11.20
2023-02-27T17:24:48.183Z,13.27
2023-02-27T17:27:14.760Z,17.35
2023-02-27T17:29:41.314Z,13.57
2023-02-27T17:32:08.115Z,14.60
2023-02-27T17:34:34.736Z,14.95
2023-02-27T17:37:01.420Z,13.50
2023-02-27T17:39:27.992Z,11.00
2023-02-27T17:41:54.963Z,11.15
2023-02-27T17:44:21.616Z,13.68
2023-02-27T17:46:48.346Z,14.95
2023-02-27T17:49:14.903Z,11.32
2023-02-27T17:51:41.579Z,12.52
2023-02-27T17:54:08.174Z,9.90
2023-02-27T17:56:36.804Z,11.55
2023-02-27T17:59:03.947Z,12.63
2023-02-27T18:01:30.763Z,13.20
2023-02-27T18:03:57.610Z,11.43
2023-02-27T18:06:24.930Z,11.60
2023-02-27T18:08:51.556Z,12.48
2023-02-27T18:11:20.516Z,13.00
2023-02-27T18:13:48.440Z,14.68
2023-02-27T18:16:15.322Z,14.65
2023-02-27T18:18:42.770Z,15.75
2023-02-27T18:21:09.922Z,17.83
2023-02-27T18:23:37.319Z,21.63
2023-02-27T18:26:10.581Z,19.27
2023-02-27T18:28:39.479Z,13.32
2023-02-27T18:31:06.600Z,16.05
2023-02-27T18:33:33.465Z,14.13
2023-02-27T18:35:59.996Z,17.42
2023-02-27T18:38:29.401Z,14.35
2023-02-27T18:40:57.332Z,16.67
2023-02-27T18:43:26.196Z,14.10
2023-02-27T18:45:52.991Z,15.45
2023-02-27T18:48:19.614Z,18.58
2023-02-27T18:50:46.346Z,17.95
2023-02-27T18:53:12.881Z,13.95
2023-02-27T18:55:39.610Z,10.93
2023-02-27T19:00:25.737Z,15.35
2023-02-27T19:02:52.568Z,17.90
2023-02-27T19:05:19.154Z,14.43
2023-02-27T19:07:45.949Z,16.98
2023-02-27T19:10:13.006Z,19.02
2023-02-27T19:12:39.615Z,18.70
2023-02-27T19:15:08.122Z,20.88
2023-02-27T19:17:34.926Z,27.08
2023-02-27T19:20:01.432Z,24.90
2023-02-27T19:22:30.964Z,20.65
2023-02-27T19:25:01.085Z,19.85
2023-02-27T19:27:27.714Z,18.73
2023-02-27T19:29:54.251Z,17.92
2023-02-27T19:32:21.653Z,18.88
2023-02-27T19:34:48.343Z,20.67
2023-02-27T19:37:16.743Z,18.42
2023-02-27T19:39:44.507Z,18.95
2023-02-27T19:42:11.650Z,16.02
2023-02-27T19:44:39.741Z,14.07
2023-02-27T19:47:07.408Z,14.23
2023-02-27T19:49:34.061Z,15.63
2023-02-27T19:52:02.841Z,14.18
2023-02-27T19:54:30.072Z,19.27
2023-02-27T19:56:56.903Z,20.75
2023-02-27T19:59:25.814Z,23.20
2023-02-27T20:01:52.740Z,20.77
2023-02-27T20:04:19.632Z,26.02
2023-02-27T20:06:49.432Z,28.13
2023-02-27T20:09:17.554Z,20.67
2023-02-27T20:11:45.874Z,22.10
2023-02-27T20:14:14.228Z,19.55
2023-02-27T20:16:41.344Z,18.00
2023-02-27T20:19:10.453Z,21.85
2023-02-27T20:21:37.095Z,22.73
2023-02-27T20:24:05.140Z,19.40
2023-02-27T20:26:35.672Z,16.77
2023-02-27T20:29:06.825Z,11.77
2023-02-27T20:31:36.731Z,9.13
2023-02-27T20:34:06.246Z,9.52
2023-02-27T20:36:35.828Z,11.98
2023-02-27T20:39:03.694Z,8.98
2023-02-27T20:41:31.306Z,11.77
2023-02-27T20:43:58.666Z,11.55
2023-02-27T20:46:30.694Z,12.02
2023-02-27T20:49:00.429Z,15.43
2023-02-27T20:51:29.957Z,148.57
2023-02-27T20:53:59.105Z,82.03
2023-02-27T20:56:28.951Z,100.40
2023-02-27T20:58:55.925Z,61.92
2023-02-27T21:01:26.204Z,33.92
2023-02-27T21:03:55.705Z,44.00
2023-02-27T21:06:25.961Z,33.08
2023-02-27T21:08:55.181Z,25.00
2023-02-27T21:11:27.790Z,21.23
2023-02-27T21:13:57.104Z,18.58
2023-02-27T21:16:25.576Z,16.70
2023-02-27T21:18:54.023Z,16.65
2023-02-27T21:21:24.086Z,16.42
2023-02-27T21:23:51.747Z,22.58
2023-02-27T21:26:27.453Z,37.50
2023-02-27T21:28:59.528Z,36.10
2023-02-27T21:31:30.020Z,28.23
2023-02-27T21:33:58.643Z,37.10
2023-02-27T21:36:27.905Z,26.85
2023-02-27T21:38:58.017Z,23.85
2023-02-27T21:41:24.638Z,21.20
2023-02-27T21:43:51.452Z,20.33
2023-02-27T21:46:20.721Z,29.52
2023-02-27T21:48:47.438Z,24.52
2023-02-27T21:51:14.041Z,18.80
2023-02-27T21:53:40.601Z,20.83
2023-02-27T21:56:10.324Z,35.47
2023-02-27T21:58:37.990Z,27.75
2023-02-27T22:01:16.421Z,34.10
2023-02-27T22:03:47.287Z,33.42
2023-02-27T22:06:14.907Z,26.55
2023-02-27T22:08:42.294Z,21.25
2023-02-27T22:11:09.689Z,18.02
2023-02-27T22:13:37.067Z,15.57
2023-02-27T22:16:05.918Z,18.45
2023-02-27T22:18:32.849Z,15.57
2023-02-27T22:21:00.435Z,15.18
2023-02-27T22:23:27.856Z,16.85
2023-02-27T22:26:02.600Z,15.75
2023-02-27T22:28:31.344Z,16.40
2023-02-27T22:31:16.522Z,13.93
2023-02-27T22:33:44.871Z,15.15
2023-02-27T22:36:17.037Z,15.45
2023-02-27T22:41:15.246Z,16.23
2023-02-27T22:43:46.703Z,17.40
2023-02-27T22:46:16.927Z,15.77
2023-02-27T22:48:44.327Z,23.23
2023-02-27T22:51:14.624Z,28.05
2023-02-27T22:53:42.456Z,22.60
2023-02-27T22:56:11.772Z,18.63
2023-02-27T22:58:39.308Z,19.38
2023-02-27T23:01:13.481Z,16.83
2023-02-27T23:03:41.335Z,15.32
2023-02-27T23:06:10.496Z,13.98
2023-02-27T23:08:37.608Z,14.73
2023-02-27T23:11:05.011Z,13.00
2023-02-27T23:13:34.845Z,12.88
2023-02-27T23:16:02.462Z,13.38
2023-02-27T23:18:29.265Z,14.52
2023-02-27T23:20:55.746Z,14.02
2023-02-27T23:23:22.930Z,15.30
2023-02-27T23:25:49.457Z,14.25
2023-02-27T23:28:16.295Z,14.85
2023-02-27T23:30:42.823Z,17.17
2023-02-27T23:33:09.449Z,18.25
2023-02-27T23:35:36.020Z,16.35
2023-02-27T23:38:02.578Z,15.55
2023-02-27T23:40:29.216Z,15.35
2023-02-27T23:43:14.766Z,13.32
2023-02-27T23:45:41.747Z,14.27
2023-02-27T23:48:08.705Z,14.68
2023-02-27T23:50:39.835Z,14.90
2023-02-27T23:53:07.500Z,15.18
2023-02-27T23:55:36.166Z,18.58
2023-02-27T23:58:05.354Z,18.77
